Listerhav — ZDKC7 — position and weather

sailwx.info

Track history (hours):
 
Tides and Currents Weather Stations Pressure Air Temp Water Temp Dewpoint Dewpoint Depression Visibility Wind Speed Wind Dir Waves Ship Positions

Listerhav

Last reported at 2015-May-29 23:21 UTC. Time now 2015-May-30 00:28 UTC.
Position N 56°10' E 014°52'.

Length 88 m; draft 4.1 m.

Type: Ship. MMSI: 236591000.

Date/timePositionNaut miles runAvg speedWind from/ knotsBaromVisibWave heightAir tempDewpointWater temp
2015-May-29 23:21N 56°10' E 014°52'0 0.0
2015-May-29 22:33N 56°10' E 014°52'0 0.0
2015-May-29 21:33N 56°10' E 014°52'0 0.0
2015-May-29 20:33N 56°10' E 014°52'0 0.0
2015-May-29 19:33N 56°10' E 014°52'  
2015-May-26 02:15N 55°47' E 014°37'4 6.3
2015-May-26 01:33N 55°43' E 014°34'47 5.9
2015-May-25 17:33N 55°16' E 013°26'8 7.6
2015-May-25 16:34N 55°15' E 013°13'7 7.4
2015-May-25 15:33N 55°14' E 013°00'8 7.5
2015-May-25 14:34N 55°16' E 012°47'7 6.9
2015-May-25 13:34N 55°20' E 012°38'8 7.9
2015-May-25 12:33N 55°28' E 012°41'8 7.7
2015-May-25 11:34N 55°36' E 012°42'7 7.3
2015-May-25 10:34N 55°43' E 012°41'8 7.6
2015-May-25 09:34N 55°51' E 012°40'8 8.3
2015-May-25 08:33N 55°59' E 012°38'7 6.5
2015-May-25 07:34N 56°05' E 012°35'7 7.0
2015-May-25 06:34N 56°09' E 012°24'8 7.6
2015-May-25 05:34N 56°13' E 012°12'8 7.6
2015-May-25 04:34N 56°16' E 012°00'61 6.8
2015-May-24 19:33N 56°29' E 010°13'6 5.4
2015-May-24 18:30N 56°28' E 010°03'0 0.0
2015-May-24 00:17N 56°27' E 010°03'0 0.0
2015-May-23 20:11N 56°27' E 010°03'0 0.0
2015-May-22 22:23N 56°27' E 010°03'0 0.0
2015-May-22 20:17N 56°27' E 010°03'0 0.0
2015-May-21 14:13N 56°27' E 010°03'0 0.0
2015-May-21 11:31N 56°27' E 010°03'0 0.0
2015-May-21 10:22N 56°27' E 010°03'0 0.0
2015-May-21 05:24N 56°27' E 010°03'0 0.0
2015-May-21 04:34N 56°27' E 010°03'0 0.0
2015-May-21 03:31N 56°27' E 010°03'0 0.0
2015-May-21 02:27N 56°27' E 010°03'0 0.0
2015-May-21 01:33N 56°27' E 010°03'0 0.0
2015-May-21 00:09N 56°27' E 010°03'0 0.0
2015-May-20 23:27N 56°27' E 010°03'0 0.0
2015-May-20 22:27N 56°27' E 010°03'0 0.0
2015-May-20 21:24N 56°27' E 010°03'0 0.0
2015-May-20 20:33N 56°27' E 010°03'0 0.0
2015-May-20 19:33N 56°27' E 010°03'0 0.0
2015-May-20 18:33N 56°27' E 010°03'0 0.0
2015-May-20 17:21N 56°27' E 010°03'0 0.0
2015-May-20 16:33N 56°27' E 010°03'0 0.0
2015-May-20 15:33N 56°27' E 010°03'0 0.0
2015-May-20 14:21N 56°27' E 010°03'0 0.0
2015-May-20 13:33N 56°27' E 010°03'0 0.0
2015-May-20 12:33N 56°27' E 010°03'0 0.0
2015-May-20 11:30N 56°27' E 010°03'0 0.0
2015-May-20 09:18N 56°27' E 010°03'0 0.0
2015-May-20 07:30N 56°27' E 010°03'0 0.0
2015-May-20 06:27N 56°27' E 010°03'0 0.0
2015-May-20 05:33N 56°27' E 010°03'0 0.0
2015-May-20 04:33N 56°27' E 010°03'0 0.0
2015-May-20 03:21N 56°27' E 010°03'0 0.0
2015-May-20 02:24N 56°27' E 010°03'0 0.0
2015-May-20 01:24N 56°27' E 010°03'0 0.0
2015-May-20 00:30N 56°27' E 010°03'0 0.0
2015-May-19 23:33N 56°27' E 010°03'  
Track history (hours):
 
Tides and Currents Weather Stations Pressure Air Temp Water Temp Dewpoint Dewpoint Depression Visibility Wind Speed Wind Dir Waves Ship Positions

Listerhav

Last reported at 2015-May-29 23:21 UTC. Time now 2015-May-30 00:28 UTC.
Position N 56°10' E 014°52'.

Length 88 m; draft 4.1 m.

Type: Ship. MMSI: 236591000.

Date/timePositionNaut miles runAvg speedWind from/ knotsBaromVisibWave heightAir tempDewpointWater temp
2015-May-29 23:21N 56°10' E 014°52'0 0.0
2015-May-29 22:33N 56°10' E 014°52'0 0.0
2015-May-29 21:33N 56°10' E 014°52'0 0.0
2015-May-29 20:33N 56°10' E 014°52'0 0.0
2015-May-29 19:33N 56°10' E 014°52'  
2015-May-26 02:15N 55°47' E 014°37'4 6.3
2015-May-26 01:33N 55°43' E 014°34'47 5.9
2015-May-25 17:33N 55°16' E 013°26'8 7.6
2015-May-25 16:34N 55°15' E 013°13'7 7.4
2015-May-25 15:33N 55°14' E 013°00'8 7.5
2015-May-25 14:34N 55°16' E 012°47'7 6.9
2015-May-25 13:34N 55°20' E 012°38'8 7.9
2015-May-25 12:33N 55°28' E 012°41'8 7.7
2015-May-25 11:34N 55°36' E 012°42'7 7.3
2015-May-25 10:34N 55°43' E 012°41'8 7.6
2015-May-25 09:34N 55°51' E 012°40'8 8.3
2015-May-25 08:33N 55°59' E 012°38'7 6.5
2015-May-25 07:34N 56°05' E 012°35'7 7.0
2015-May-25 06:34N 56°09' E 012°24'8 7.6
2015-May-25 05:34N 56°13' E 012°12'8 7.6
2015-May-25 04:34N 56°16' E 012°00'61 6.8
2015-May-24 19:33N 56°29' E 010°13'6 5.4
2015-May-24 18:30N 56°28' E 010°03'0 0.0
2015-May-24 00:17N 56°27' E 010°03'0 0.0
2015-May-23 20:11N 56°27' E 010°03'0 0.0
2015-May-22 22:23N 56°27' E 010°03'0 0.0
2015-May-22 20:17N 56°27' E 010°03'0 0.0
2015-May-21 14:13N 56°27' E 010°03'0 0.0
2015-May-21 11:31N 56°27' E 010°03'0 0.0
2015-May-21 10:22N 56°27' E 010°03'0 0.0
2015-May-21 05:24N 56°27' E 010°03'0 0.0
2015-May-21 04:34N 56°27' E 010°03'0 0.0
2015-May-21 03:31N 56°27' E 010°03'0 0.0
2015-May-21 02:27N 56°27' E 010°03'0 0.0
2015-May-21 01:33N 56°27' E 010°03'0 0.0
2015-May-21 00:09N 56°27' E 010°03'0 0.0
2015-May-20 23:27N 56°27' E 010°03'0 0.0
2015-May-20 22:27N 56°27' E 010°03'0 0.0
2015-May-20 21:24N 56°27' E 010°03'0 0.0
2015-May-20 20:33N 56°27' E 010°03'0 0.0
2015-May-20 19:33N 56°27' E 010°03'0 0.0
2015-May-20 18:33N 56°27' E 010°03'0 0.0
2015-May-20 17:21N 56°27' E 010°03'0 0.0
2015-May-20 16:33N 56°27' E 010°03'0 0.0
2015-May-20 15:33N 56°27' E 010°03'0 0.0
2015-May-20 14:21N 56°27' E 010°03'0 0.0
2015-May-20 13:33N 56°27' E 010°03'0 0.0
2015-May-20 12:33N 56°27' E 010°03'0 0.0
2015-May-20 11:30N 56°27' E 010°03'0 0.0
2015-May-20 09:18N 56°27' E 010°03'0 0.0
2015-May-20 07:30N 56°27' E 010°03'0 0.0
2015-May-20 06:27N 56°27' E 010°03'0 0.0
2015-May-20 05:33N 56°27' E 010°03'0 0.0
2015-May-20 04:33N 56°27' E 010°03'0 0.0
2015-May-20 03:21N 56°27' E 010°03'0 0.0
2015-May-20 02:24N 56°27' E 010°03'0 0.0
2015-May-20 01:24N 56°27' E 010°03'0 0.0
2015-May-20 00:30N 56°27' E 010°03'0 0.0
2015-May-19 23:33N 56°27' E 010°03'  

Dump ship's entire track history